Decoded Metar for CYLL (LLOYDMINSTER in AB, CANADA) (IATA:YLL) | Meteo·Mobile Aviation Weather
aviador You're here:

CYLL Decoded Metar

LLOYDMINSTER in AB, CANADA
Report Time2018-12-15 16:00:00
UTC Time2018-12-15 16:54:32
Flight Rules vfr VFR
Wind270° at 15 kt
W.Decomp.*RWY 26: 14.9 kt HW 1.3 kt LCW
RWY 30: 10.6 kt HW 10.6 kt LCW
W.Rank270° ranks 4
Current wind is above 270° avg. (10.0)
Visibility9999 m
Phenomena:N/A
Clouds:Few 100 Hf
Scattered 250 Hf
Expected CloudBase > 2,400 ft AGL from Temp-Dew spread
CeilingNone
Temp03°C (ISA -8)
Dew Point-3°C (65% RH)
AAT-4.8°C
QNH995 hPa
Density Alt1,965 ft
Elevation2,195 ft
Report Wrong Elevation
Raw Report
CYLL 151600Z 27015KT 15SM FEW100 SCT250 03/M03 A2937 RMK AC2CI2
SLP971=

Extra information for CYLL:More info

Metar Taf Metar & Taf Last 4 Metars F.Rules Stats Wind Profile Meteogram Temp Stats Airport Information Weather charts Add Link Nearby VenuesMetar ALERT Operation Metar Decoded Social comments